Benjamin, Utah
Current Conditions -  °F | °C
As of 11:48 AM on Thursday 18 Dec 2014 (Local Time) from KPVU Reporting Station
Broken Clouds Broken Clouds  
Wind Chill: 37°   Ceiling: 1700
Heat Index: 37°   Visibility: 10mi
Dew Point: 34°   Wind: 0mph
Humidity: 87%   Direction: NA
Pressure: 30.17"   Gusts: NA
Location:  40.1192°N, 111.689°W
Report Text: KPVU 181848Z 00000KT 10SM FEW011 BKN017 03/01 A3017
Loading
Personal Weather Stations






























Interactive Weather Map New forecast layout! Learn more

10-Day Weather Forecast

Advertisements
Track Severe Weather on mobile